Time;durP1;ratioP1;P1;durP2;ratioP2;P2;SDS_P1;SDS_P2;PMS_P1;PMS_P2;Temp;Humidity;BMP_temperature;BMP_pressure;BME280_temperature;BME280_humidity;BME280_pressure;Samples;Min_cycle;Max_cycle;Signal;HPM_P1;HPM_P2
2022/03/22 00:00:28;;;;;;;14.13;7.78;;;;;;;;;;5087206;28;20112;-46
2022/03/22 00:02:54;;;;;;;13.82;7.68;;;;;;;;;;5079900;28;20475;-46
2022/03/22 00:05:20;;;;;;;14.82;6.93;;;;;;;;;;5086358;28;20041;-46
2022/03/22 00:07:46;;;;;;;15.05;7.50;;;;;;;;;;5079055;28;20111;-46
2022/03/22 00:10:12;;;;;;;13.35;7.38;;;;;;;;;;5091557;28;20502;-46
2022/03/22 00:12:38;;;;;;;14.93;7.50;;;;;;;;;;5079472;28;20028;-52
2022/03/22 00:15:04;;;;;;;13.02;7.00;;;;;;;;;;5085068;28;20078;-50
2022/03/22 00:17:30;;;;;;;15.82;7.82;;;;;;;;;;5083148;28;20035;-46
2022/03/22 00:19:57;;;;;;;15.15;8.02;;;;;;;;;;5091875;28;20445;-49
2022/03/22 00:22:24;;;;;;;16.50;7.38;;;;;;;;;;5081154;28;20047;-51
2022/03/22 00:24:51;;;;;;;13.00;7.13;;;;;;;;;;5089357;28;20024;-47
2022/03/22 00:27:17;;;;;;;19.10;8.30;;;;;;;;;;5082462;28;20115;-49
2022/03/22 00:29:43;;;;;;;17.45;8.57;;;;;;;;;;5086016;28;20103;-48
2022/03/22 00:32:08;;;;;;;15.40;7.15;;;;;;;;;;5085244;28;20089;-47
2022/03/22 00:34:44;;;;;;;12.60;7.38;;;;;;;;;;5086759;28;20111;-47
2022/03/22 00:37:10;;;;;;;16.88;7.20;;;;;;;;;;5083662;28;20039;-47
2022/03/22 00:39:36;;;;;;;15.18;7.47;;;;;;;;;;5075619;28;20028;-47
2022/03/22 00:42:02;;;;;;;17.10;8.10;;;;;;;;;;5084516;28;20024;-47
2022/03/22 00:44:28;;;;;;;15.45;7.50;;;;;;;;;;5083230;28;20024;-48
2022/03/22 00:46:54;;;;;;;15.48;8.10;;;;;;;;;;5084773;28;20637;-51
2022/03/22 00:49:20;;;;;;;16.45;8.10;;;;;;;;;;5072258;28;20408;-47
2022/03/22 00:51:47;;;;;;;20.70;8.52;;;;;;;;;;5084139;28;20472;-49
2022/03/22 00:54:13;;;;;;;16.02;7.57;;;;;;;;;;5085098;28;20097;-46
2022/03/22 00:56:39;;;;;;;15.52;7.82;;;;;;;;;;5073229;28;20040;-47
2022/03/22 01:01:50;;;;;;;20.25;7.95;;;;;;;;;;5074495;28;20086;-48
2022/03/22 01:04:16;;;;;;;11.98;7.25;;;;;;;;;;5077911;28;20024;-47
2022/03/22 01:06:43;;;;;;;16.77;8.15;;;;;;;;;;5084519;28;20527;-46
2022/03/22 01:09:10;;;;;;;14.32;7.70;;;;;;;;;;5086742;28;20035;-47
2022/03/22 01:11:36;;;;;;;16.40;8.30;;;;;;;;;;5083034;28;20025;-46
2022/03/22 01:14:02;;;;;;;16.02;8.57;;;;;;;;;;5083901;28;20119;-46
2022/03/22 01:16:28;;;;;;;18.27;7.78;;;;;;;;;;5093200;28;20098;-47
2022/03/22 01:18:54;;;;;;;13.48;7.30;;;;;;;;;;5082725;28;20120;-46
2022/03/22 01:21:20;;;;;;;16.05;7.68;;;;;;;;;;5094567;28;20028;-46
2022/03/22 01:23:46;;;;;;;14.73;7.45;;;;;;;;;;5094379;28;20472;-47
2022/03/22 01:26:13;;;;;;;15.27;7.65;;;;;;;;;;5092088;28;20054;-47
2022/03/22 01:28:39;;;;;;;20.65;8.90;;;;;;;;;;5091964;28;20400;-48
2022/03/22 01:31:05;;;;;;;14.68;7.07;;;;;;;;;;5093890;28;20040;-48
2022/03/22 01:33:31;;;;;;;17.60;8.02;;;;;;;;;;5092683;28;20024;-49
2022/03/22 01:35:57;;;;;;;15.25;7.25;;;;;;;;;;5087498;28;20020;-47
2022/03/22 01:38:23;;;;;;;12.95;6.95;;;;;;;;;;5091512;28;20031;-49
2022/03/22 01:40:49;;;;;;;15.02;8.32;;;;;;;;;;5090938;28;20126;-48
2022/03/22 01:43:15;;;;;;;17.80;8.88;;;;;;;;;;5088064;28;20151;-47
2022/03/22 01:45:42;;;;;;;18.15;9.30;;;;;;;;;;5086647;28;20098;-46
2022/03/22 01:48:08;;;;;;;18.73;8.43;;;;;;;;;;5084403;28;20533;-47
2022/03/22 01:50:36;;;;;;;15.27;7.68;;;;;;;;;;5082526;28;20024;-46
2022/03/22 01:53:02;;;;;;;15.02;8.00;;;;;;;;;;5078533;28;20044;-46
2022/03/22 01:55:28;;;;;;;16.65;9.20;;;;;;;;;;5075867;28;20055;-47
2022/03/22 01:57:55;;;;;;;16.17;8.18;;;;;;;;;;5079307;28;20036;-51
2022/03/22 02:00:21;;;;;;;21.13;9.07;;;;;;;;;;5093087;28;20039;-46
2022/03/22 02:05:52;;;;;;;21.98;8.15;;;;;;;;;;5081299;28;20051;-46
2022/03/22 02:08:24;;;;;;;17.65;8.52;;;;;;;;;;5081981;28;20047;-49
2022/03/22 02:10:50;;;;;;;14.85;7.57;;;;;;;;;;5085741;28;20028;-46
2022/03/22 02:13:16;;;;;;;17.02;7.45;;;;;;;;;;5091844;28;20032;-47
2022/03/22 02:15:43;;;;;;;16.38;8.10;;;;;;;;;;5086220;28;20036;-49
2022/03/22 02:18:09;;;;;;;15.75;7.93;;;;;;;;;;5085368;28;20039;-47
2022/03/22 02:20:36;;;;;;;14.65;7.88;;;;;;;;;;5081298;28;20025;-46
2022/03/22 02:23:07;;;;;;;16.17;8.68;;;;;;;;;;5085813;28;20404;-47
2022/03/22 02:25:36;;;;;;;16.08;7.78;;;;;;;;;;5087749;28;20028;-47
2022/03/22 02:28:03;;;;;;;17.05;7.85;;;;;;;;;;5081447;28;20029;-46
2022/03/22 02:30:29;;;;;;;21.38;8.82;;;;;;;;;;5081480;28;20032;-48
2022/03/22 02:32:56;;;;;;;13.80;8.10;;;;;;;;;;5085055;28;20028;-46
2022/03/22 02:35:23;;;;;;;17.13;8.73;;;;;;;;;;5086808;28;20084;-46
2022/03/22 02:37:49;;;;;;;19.38;7.82;;;;;;;;;;5091747;28;20038;-46
2022/03/22 02:40:16;;;;;;;19.10;8.50;;;;;;;;;;5084383;28;20121;-51
2022/03/22 02:42:49;;;;;;;17.33;8.15;;;;;;;;;;5087035;28;20028;-48
2022/03/22 02:45:15;;;;;;;18.83;8.50;;;;;;;;;;5092693;28;20068;-47
2022/03/22 02:47:41;;;;;;;16.05;7.95;;;;;;;;;;5077609;28;20020;-48
2022/03/22 02:50:07;;;;;;;16.70;8.80;;;;;;;;;;5086886;28;20124;-47
2022/03/22 02:52:33;;;;;;;18.20;8.02;;;;;;;;;;5076302;28;20032;-49
2022/03/22 02:55:00;;;;;;;18.15;8.77;;;;;;;;;;5080467;28;20061;-48
2022/03/22 02:57:26;;;;;;;16.45;8.00;;;;;;;;;;5088639;28;20855;-47
2022/03/22 02:59:52;;;;;;;14.27;7.57;;;;;;;;;;5093278;28;20028;-50
2022/03/22 03:02:18;;;;;;;15.70;7.70;;;;;;;;;;5089279;28;20032;-47
2022/03/22 03:04:44;;;;;;;15.38;7.70;;;;;;;;;;5089224;28;20103;-47
2022/03/22 03:07:10;;;;;;;18.13;8.90;;;;;;;;;;5091486;28;20020;-47
2022/03/22 03:09:35;;;;;;;15.85;9.15;;;;;;;;;;5078853;28;20028;-46
2022/03/22 03:12:01;;;;;;;16.80;8.85;;;;;;;;;;5082272;28;20039;-48
2022/03/22 03:14:40;;;;;;;18.52;8.77;;;;;;;;;;5085519;28;20114;-47
2022/03/22 03:17:14;;;;;;;17.80;8.63;;;;;;;;;;5076708;28;20472;-47
2022/03/22 03:19:41;;;;;;;17.05;7.90;;;;;;;;;;5081939;28;20070;-47
2022/03/22 03:22:08;;;;;;;17.38;8.02;;;;;;;;;;5078736;28;20417;-47
2022/03/22 03:24:34;;;;;;;17.42;8.98;;;;;;;;;;5081014;28;20047;-47
2022/03/22 03:27:00;;;;;;;17.38;8.77;;;;;;;;;;5077904;28;20065;-48
2022/03/22 03:29:27;;;;;;;18.42;8.20;;;;;;;;;;5082928;28;20029;-47
2022/03/22 03:31:53;;;;;;;17.02;8.55;;;;;;;;;;5090146;28;20031;-50
2022/03/22 03:34:19;;;;;;;16.08;8.07;;;;;;;;;;5075113;28;20459;-48
2022/03/22 03:36:45;;;;;;;17.92;8.18;;;;;;;;;;5075785;28;20059;-47
2022/03/22 03:39:11;;;;;;;14.98;7.72;;;;;;;;;;5084637;28;20036;-49
2022/03/22 03:42:00;;;;;;;16.02;8.25;;;;;;;;;;5082557;28;20475;-51
2022/03/22 03:47:13;;;;;;;18.95;8.52;;;;;;;;;;5085514;28;20031;-50
2022/03/22 03:49:46;;;;;;;18.77;8.68;;;;;;;;;;5087555;28;20036;-47
2022/03/22 03:52:13;;;;;;;18.33;8.52;;;;;;;;;;5080559;28;20039;-48
2022/03/22 03:54:39;;;;;;;18.33;8.10;;;;;;;;;;5090161;28;20060;-47
2022/03/22 03:57:06;;;;;;;19.75;8.82;;;;;;;;;;5088051;28;20444;-47
2022/03/22 03:59:32;;;;;;;17.55;8.05;;;;;;;;;;5092011;28;20111;-47
2022/03/22 04:01:59;;;;;;;22.45;8.73;;;;;;;;;;5085051;28;20023;-47
2022/03/22 04:04:25;;;;;;;17.65;9.13;;;;;;;;;;5079547;28;20024;-47
2022/03/22 04:06:51;;;;;;;18.30;8.48;;;;;;;;;;5082893;28;20360;-47
2022/03/22 04:09:17;;;;;;;20.05;9.02;;;;;;;;;;5092168;28;20035;-47
2022/03/22 04:11:44;;;;;;;16.00;7.88;;;;;;;;;;5088132;28;20056;-47
2022/03/22 04:14:10;;;;;;;17.73;8.02;;;;;;;;;;5080363;28;20059;-47
2022/03/22 04:16:36;;;;;;;17.05;8.40;;;;;;;;;;5079795;28;20020;-51
2022/03/22 04:19:02;;;;;;;19.50;8.05;;;;;;;;;;5081220;28;20419;-49
2022/03/22 04:21:29;;;;;;;20.70;8.60;;;;;;;;;;5087995;28;20081;-48
2022/03/22 04:23:55;;;;;;;14.23;8.65;;;;;;;;;;5092314;28;20106;-49
2022/03/22 04:26:21;;;;;;;17.35;8.68;;;;;;;;;;5080374;28;20032;-49
2022/03/22 04:34:18;;;;;;;17.65;8.07;;;;;;;;;;5092421;28;20039;-47
2022/03/22 04:36:44;;;;;;;19.02;8.77;;;;;;;;;;5082270;28;20020;-52
2022/03/22 04:39:10;;;;;;;18.25;8.85;;;;;;;;;;5091956;28;20353;-47
2022/03/22 04:41:36;;;;;;;16.33;8.02;;;;;;;;;;5088378;28;20032;-47
2022/03/22 04:44:02;;;;;;;17.08;8.88;;;;;;;;;;5076970;28;20039;-47
2022/03/22 04:46:28;;;;;;;18.35;8.32;;;;;;;;;;5085705;28;20085;-47
2022/03/22 04:48:54;;;;;;;18.23;8.52;;;;;;;;;;5083303;28;20081;-47
2022/03/22 04:56:49;;;;;;;15.98;8.30;;;;;;;;;;5093663;28;20055;-48
2022/03/22 04:59:24;;;;;;;15.07;8.48;;;;;;;;;;5088963;28;20073;-47
2022/03/22 05:01:51;;;;;;;19.17;8.50;;;;;;;;;;5082107;28;20043;-48
2022/03/22 05:04:17;;;;;;;15.52;7.75;;;;;;;;;;5082214;28;20023;-51
2022/03/22 05:06:43;;;;;;;14.73;8.35;;;;;;;;;;5087686;28;20039;-47
2022/03/22 05:09:12;;;;;;;19.45;8.57;;;;;;;;;;5082510;28;20024;-47
2022/03/22 05:11:38;;;;;;;20.25;8.93;;;;;;;;;;5087377;28;20027;-50
2022/03/22 05:14:04;;;;;;;18.88;8.35;;;;;;;;;;5087559;28;20029;-48
2022/03/22 05:16:31;;;;;;;15.73;8.43;;;;;;;;;;5091771;28;20032;-51
2022/03/22 05:18:57;;;;;;;17.75;9.07;;;;;;;;;;5087609;28;20111;-47
2022/03/22 05:21:24;;;;;;;16.80;8.43;;;;;;;;;;5082355;28;20040;-51
2022/03/22 05:23:50;;;;;;;18.85;8.88;;;;;;;;;;5085256;28;20055;-47
2022/03/22 05:26:17;;;;;;;19.80;9.13;;;;;;;;;;5090967;28;20365;-47
2022/03/22 05:28:44;;;;;;;17.50;9.38;;;;;;;;;;5086859;28;20037;-47
2022/03/22 05:31:10;;;;;;;17.20;8.30;;;;;;;;;;5082472;28;20110;-47
2022/03/22 05:33:36;;;;;;;19.52;9.15;;;;;;;;;;5080989;28;20028;-49
2022/03/22 05:36:03;;;;;;;17.13;8.88;;;;;;;;;;5085126;28;20115;-47
2022/03/22 05:38:29;;;;;;;15.82;8.55;;;;;;;;;;5090218;28;20040;-48
2022/03/22 05:40:56;;;;;;;18.85;8.77;;;;;;;;;;5082145;28;20028;-48
2022/03/22 05:43:22;;;;;;;18.58;8.30;;;;;;;;;;5088558;28;20028;-47
2022/03/22 05:45:48;;;;;;;22.70;9.48;;;;;;;;;;5088131;28;20104;-48
2022/03/22 05:48:15;;;;;;;21.60;9.38;;;;;;;;;;5083148;28;20032;-48
2022/03/22 05:50:41;;;;;;;19.67;9.27;;;;;;;;;;5088830;28;20482;-49
2022/03/22 05:53:07;;;;;;;17.35;9.45;;;;;;;;;;5076309;28;20063;-47
2022/03/22 05:55:33;;;;;;;19.48;9.13;;;;;;;;;;5083141;28;20086;-52
2022/03/22 05:57:59;;;;;;;16.23;8.88;;;;;;;;;;5079001;28;20043;-47
2022/03/22 06:00:25;;;;;;;15.55;9.15;;;;;;;;;;5081525;28;20020;-49
2022/03/22 06:02:51;;;;;;;17.90;9.07;;;;;;;;;;5077656;28;20102;-50
2022/03/22 06:05:17;;;;;;;16.65;9.27;;;;;;;;;;5087582;28;20029;-47
2022/03/22 06:07:44;;;;;;;20.02;9.73;;;;;;;;;;5087286;28;20039;-47
2022/03/22 06:10:14;;;;;;;17.42;8.70;;;;;;;;;;5082811;28;20048;-47
2022/03/22 06:12:47;;;;;;;17.42;8.10;;;;;;;;;;5076519;28;20033;-48
2022/03/22 06:15:17;;;;;;;20.50;8.35;;;;;;;;;;5077476;28;20039;-46
2022/03/22 06:17:50;;;;;;;18.27;8.75;;;;;;;;;;5084623;28;20695;-47
2022/03/22 06:20:17;;;;;;;18.63;9.13;;;;;;;;;;5079078;28;20028;-47
2022/03/22 06:22:43;;;;;;;20.85;9.45;;;;;;;;;;5081205;28;20403;-48
2022/03/22 06:25:12;;;;;;;16.38;8.93;;;;;;;;;;5091248;28;20032;-47
2022/03/22 06:27:38;;;;;;;17.58;9.45;;;;;;;;;;5082666;28;20028;-52
2022/03/22 06:30:05;;;;;;;19.13;9.75;;;;;;;;;;5079236;28;20153;-47
2022/03/22 06:32:31;;;;;;;18.23;9.05;;;;;;;;;;5084370;28;20028;-49
2022/03/22 06:34:57;;;;;;;18.98;9.32;;;;;;;;;;5079907;28;20032;-50
2022/03/22 06:37:23;;;;;;;19.70;9.43;;;;;;;;;;5084080;28;20032;-47
2022/03/22 06:39:49;;;;;;;20.23;9.52;;;;;;;;;;5087919;28;20522;-47
2022/03/22 06:42:15;;;;;;;16.17;8.90;;;;;;;;;;5080460;28;20023;-48
2022/03/22 06:44:41;;;;;;;18.98;9.52;;;;;;;;;;5085292;28;20380;-53
2022/03/22 06:47:07;;;;;;;16.58;9.27;;;;;;;;;;5079600;28;20032;-47
2022/03/22 06:49:33;;;;;;;18.40;9.32;;;;;;;;;;5091127;28;20439;-50
2022/03/22 06:51:59;;;;;;;22.42;9.57;;;;;;;;;;5083486;28;20047;-49
2022/03/22 06:54:27;;;;;;;22.63;9.88;;;;;;;;;;5081160;28;20060;-47
2022/03/22 06:56:53;;;;;;;16.38;9.45;;;;;;;;;;5080647;28;20380;-48
2022/03/22 06:59:20;;;;;;;18.80;8.82;;;;;;;;;;5086499;28;20040;-49
2022/03/22 07:01:45;;;;;;;19.73;9.45;;;;;;;;;;5079301;28;20024;-49
2022/03/22 07:04:11;;;;;;;19.17;9.48;;;;;;;;;;5082750;28;20074;-48
2022/03/22 07:06:37;;;;;;;16.17;9.43;;;;;;;;;;5080532;28;20468;-47
2022/03/22 07:09:03;;;;;;;18.10;8.95;;;;;;;;;;5086461;28;20369;-51
2022/03/22 07:14:14;;;;;;;17.85;8.13;;;;;;;;;;5080356;28;20030;-47
2022/03/22 07:16:40;;;;;;;15.20;8.82;;;;;;;;;;5076841;28;20032;-49
2022/03/22 07:19:06;;;;;;;15.05;8.88;;;;;;;;;;5084677;28;20027;-47
2022/03/22 07:21:32;;;;;;;16.42;8.60;;;;;;;;;;5080552;28;20025;-48
2022/03/22 07:23:58;;;;;;;20.02;9.25;;;;;;;;;;5076871;28;20036;-49
2022/03/22 07:26:24;;;;;;;20.17;9.45;;;;;;;;;;5078163;28;20440;-48
2022/03/22 07:28:50;;;;;;;19.45;9.60;;;;;;;;;;5080383;28;20467;-47
2022/03/22 07:31:16;;;;;;;19.02;8.60;;;;;;;;;;5084852;28;20033;-49
2022/03/22 07:33:42;;;;;;;16.48;8.77;;;;;;;;;;5085993;28;20039;-48
2022/03/22 07:36:08;;;;;;;18.88;9.30;;;;;;;;;;5082616;28;20079;-47
2022/03/22 07:38:34;;;;;;;20.13;9.80;;;;;;;;;;5081312;28;20024;-49
2022/03/22 07:41:00;;;;;;;16.67;8.98;;;;;;;;;;5086858;28;20503;-50
2022/03/22 07:43:28;;;;;;;16.02;8.02;;;;;;;;;;5083599;28;20418;-51
2022/03/22 07:45:55;;;;;;;16.45;8.20;;;;;;;;;;5081372;28;20020;-50
2022/03/22 07:48:20;;;;;;;17.45;8.90;;;;;;;;;;5076398;28;20029;-50
2022/03/22 07:53:31;;;;;;;17.92;9.43;;;;;;;;;;5080072;28;20127;-50
2022/03/22 07:55:57;;;;;;;20.20;9.10;;;;;;;;;;5081160;28;20024;-50
2022/03/22 07:58:23;;;;;;;19.83;8.88;;;;;;;;;;5091304;28;20038;-50
2022/03/22 08:00:49;;;;;;;19.40;9.25;;;;;;;;;;5090497;28;20108;-52
2022/03/22 08:03:18;;;;;;;18.30;9.10;;;;;;;;;;5082658;28;20054;-48
2022/03/22 08:05:47;;;;;;;16.17;8.23;;;;;;;;;;5092157;28;20028;-49
2022/03/22 08:08:13;;;;;;;14.18;8.68;;;;;;;;;;5092478;28;20098;-48
2022/03/22 08:10:39;;;;;;;16.50;7.93;;;;;;;;;;5085286;28;20373;-49
2022/03/22 08:13:08;;;;;;;16.90;8.48;;;;;;;;;;5093137;28;20043;-47
2022/03/22 08:15:35;;;;;;;16.08;8.15;;;;;;;;;;5088096;28;20035;-52
2022/03/22 08:18:01;;;;;;;14.82;8.05;;;;;;;;;;5082277;28;20029;-47
2022/03/22 08:20:30;;;;;;;19.15;9.30;;;;;;;;;;5089781;28;20040;-50
2022/03/22 08:22:59;;;;;;;15.30;8.20;;;;;;;;;;5092390;28;20028;-49
2022/03/22 08:25:27;;;;;;;16.00;7.85;;;;;;;;;;5094093;28;20032;-53
2022/03/22 08:27:53;;;;;;;16.15;7.65;;;;;;;;;;5098296;28;20576;-49
2022/03/22 08:30:22;;;;;;;15.82;8.10;;;;;;;;;;5095647;28;20456;-48
2022/03/22 08:32:49;;;;;;;14.50;8.77;;;;;;;;;;5097597;28;20739;-48
2022/03/22 08:35:15;;;;;;;16.25;7.78;;;;;;;;;;5087334;28;20036;-47
2022/03/22 08:37:41;;;;;;;17.20;8.95;;;;;;;;;;5091067;28;20031;-48
2022/03/22 08:40:07;;;;;;;15.10;8.45;;;;;;;;;;5096452;28;20028;-49
2022/03/22 08:42:34;;;;;;;21.42;8.50;;;;;;;;;;5091212;28;20093;-48
2022/03/22 08:45:00;;;;;;;17.05;8.32;;;;;;;;;;5095224;28;20048;-49
2022/03/22 08:47:27;;;;;;;13.95;7.72;;;;;;;;;;5078519;28;20035;-47
2022/03/22 08:49:53;;;;;;;13.52;7.88;;;;;;;;;;5094951;28;20028;-48
2022/03/22 08:52:19;;;;;;;14.88;7.63;;;;;;;;;;5098339;28;20050;-48
2022/03/22 08:54:45;;;;;;;15.70;7.72;;;;;;;;;;5084247;28;20048;-47
2022/03/22 08:57:11;;;;;;;15.10;8.32;;;;;;;;;;5098400;28;20020;-49
2022/03/22 08:59:37;;;;;;;15.98;7.90;;;;;;;;;;5096708;28;20024;-48
2022/03/22 09:02:03;;;;;;;15.50;7.93;;;;;;;;;;5089061;28;20059;-49
2022/03/22 09:07:14;;;;;;;13.27;7.32;;;;;;;;;;5098517;28;20062;-49
2022/03/22 09:09:40;;;;;;;18.10;7.82;;;;;;;;;;5082323;28;20472;-49
2022/03/22 09:12:06;;;;;;;14.02;7.70;;;;;;;;;;5091335;28;20858;-47
2022/03/22 09:14:32;;;;;;;17.05;7.85;;;;;;;;;;5098507;28;20448;-47
2022/03/22 09:16:58;;;;;;;10.20;6.68;;;;;;;;;;5098678;28;20085;-48
2022/03/22 09:19:24;;;;;;;13.68;7.03;;;;;;;;;;5098369;28;20383;-48
2022/03/22 09:21:50;;;;;;;16.60;7.15;;;;;;;;;;5098184;28;20028;-48
2022/03/22 09:24:16;;;;;;;14.52;7.55;;;;;;;;;;5095865;28;20024;-47
2022/03/22 09:26:42;;;;;;;11.65;6.65;;;;;;;;;;5078125;28;20031;-48
2022/03/22 09:29:08;;;;;;;13.65;7.50;;;;;;;;;;5098687;28;20020;-48
2022/03/22 09:31:34;;;;;;;12.85;6.57;;;;;;;;;;5098415;28;20099;-48
2022/03/22 09:34:00;;;;;;;11.57;6.82;;;;;;;;;;5098906;28;20755;-48
2022/03/22 09:36:26;;;;;;;15.02;7.57;;;;;;;;;;5094457;28;20016;-48
2022/03/22 09:38:52;;;;;;;11.80;7.25;;;;;;;;;;5095306;28;20043;-51
2022/03/22 09:41:19;;;;;;;14.10;7.53;;;;;;;;;;5080586;28;20064;-47
2022/03/22 09:43:48;;;;;;;12.85;7.35;;;;;;;;;;5093207;28;20020;-48
2022/03/22 09:46:18;;;;;;;12.02;7.70;;;;;;;;;;5093203;28;20081;-48
2022/03/22 09:48:44;;;;;;;15.00;7.47;;;;;;;;;;5085053;28;20035;-48
2022/03/22 09:53:55;;;;;;;15.90;7.60;;;;;;;;;;5084505;28;20114;-49
2022/03/22 09:56:22;;;;;;;12.82;7.43;;;;;;;;;;5084106;28;20036;-49
2022/03/22 09:58:48;;;;;;;11.85;7.72;;;;;;;;;;5094702;28;20456;-48
2022/03/22 10:01:14;;;;;;;15.40;7.50;;;;;;;;;;5087742;28;20059;-47
2022/03/22 10:03:40;;;;;;;13.50;7.45;;;;;;;;;;5084474;28;20450;-50
2022/03/22 10:06:07;;;;;;;15.55;6.95;;;;;;;;;;5092626;28;20110;-48
2022/03/22 10:08:36;;;;;;;12.38;6.70;;;;;;;;;;5095273;28;20375;-48
2022/03/22 10:11:02;;;;;;;15.32;7.00;;;;;;;;;;5090603;28;20039;-48
2022/03/22 10:13:29;;;;;;;15.18;7.97;;;;;;;;;;5089384;28;20038;-48
2022/03/22 10:16:05;;;;;;;12.75;7.40;;;;;;;;;;5095015;28;20028;-50
2022/03/22 10:18:34;;;;;;;13.07;6.35;;;;;;;;;;5093092;28;20028;-48
2022/03/22 10:21:01;;;;;;;12.75;7.30;;;;;;;;;;5094276;28;20020;-50
2022/03/22 10:23:28;;;;;;;12.00;6.20;;;;;;;;;;5094776;28;20376;-47
2022/03/22 10:26:04;;;;;;;10.98;6.50;;;;;;;;;;5092538;28;20023;-45
2022/03/22 10:28:31;;;;;;;13.20;6.47;;;;;;;;;;5078206;28;20028;-46
2022/03/22 10:30:57;;;;;;;8.50;5.50;;;;;;;;;;5091850;28;20103;-48
2022/03/22 10:33:23;;;;;;;10.20;6.28;;;;;;;;;;5086568;28;20132;-48
2022/03/22 10:35:50;;;;;;;12.35;5.57;;;;;;;;;;5093025;28;20067;-49
2022/03/22 10:38:19;;;;;;;9.35;5.30;;;;;;;;;;5090293;28;20039;-49
2022/03/22 10:40:47;;;;;;;8.52;5.40;;;;;;;;;;5094684;28;20031;-47
2022/03/22 10:43:14;;;;;;;11.70;5.45;;;;;;;;;;5083175;28;20028;-46
2022/03/22 10:45:48;;;;;;;7.97;5.28;;;;;;;;;;5089231;28;20032;-47
2022/03/22 10:48:26;;;;;;;11.32;5.55;;;;;;;;;;5085884;28;20115;-50
2022/03/22 10:50:53;;;;;;;10.13;4.97;;;;;;;;;;5084654;28;20161;-45
2022/03/22 10:53:20;;;;;;;8.10;4.95;;;;;;;;;;5087243;28;20043;-46
2022/03/22 10:55:46;;;;;;;8.93;5.50;;;;;;;;;;5088052;28;20111;-46
2022/03/22 10:58:14;;;;;;;12.43;5.30;;;;;;;;;;5089727;28;20035;-47
2022/03/22 11:00:43;;;;;;;12.25;5.40;;;;;;;;;;5076494;28;20478;-46
2022/03/22 11:03:09;;;;;;;8.10;5.07;;;;;;;;;;5085183;28;20035;-46
2022/03/22 11:05:35;;;;;;;9.60;5.32;;;;;;;;;;5078146;28;20032;-47
2022/03/22 11:08:02;;;;;;;7.43;4.65;;;;;;;;;;5093169;28;20035;-46
2022/03/22 11:10:29;;;;;;;8.95;5.15;;;;;;;;;;5093217;28;20523;-46
2022/03/22 11:12:57;;;;;;;7.75;4.75;;;;;;;;;;5080464;28;20546;-52
2022/03/22 11:15:24;;;;;;;7.93;4.50;;;;;;;;;;5078509;28;20029;-47
2022/03/22 11:17:51;;;;;;;6.57;4.22;;;;;;;;;;5087104;28;20687;-48
2022/03/22 11:20:17;;;;;;;7.32;4.07;;;;;;;;;;5078927;28;20666;-47
2022/03/22 11:22:47;;;;;;;7.72;4.38;;;;;;;;;;5092616;28;20086;-47
2022/03/22 11:25:13;;;;;;;6.13;4.18;;;;;;;;;;5087314;28;20051;-46
2022/03/22 11:27:40;;;;;;;6.93;4.30;;;;;;;;;;5082974;28;20024;-46
2022/03/22 11:30:07;;;;;;;5.13;3.58;;;;;;;;;;5088496;28;20103;-46
2022/03/22 11:35:24;;;;;;;6.50;4.05;;;;;;;;;;5083747;28;20539;-46
2022/03/22 11:38:01;;;;;;;8.20;4.50;;;;;;;;;;5089042;28;20043;-46
2022/03/22 11:43:15;;;;;;;8.38;4.57;;;;;;;;;;5079432;28;20078;-49
2022/03/22 11:45:51;;;;;;;9.45;4.57;;;;;;;;;;5072756;28;20805;-48
2022/03/22 11:48:18;;;;;;;6.35;4.18;;;;;;;;;;5082645;28;20372;-47
2022/03/22 11:50:45;;;;;;;6.45;4.00;;;;;;;;;;5092701;28;20488;-46
2022/03/22 11:53:18;;;;;;;8.45;5.00;;;;;;;;;;5092120;28;20067;-46
2022/03/22 11:55:47;;;;;;;5.55;3.80;;;;;;;;;;5086409;28;20027;-46
2022/03/22 11:58:14;;;;;;;6.80;3.92;;;;;;;;;;5083043;28;20024;-46
2022/03/22 12:00:46;;;;;;;6.57;3.92;;;;;;;;;;5084988;28;20040;-46
2022/03/22 12:03:13;;;;;;;9.68;4.20;;;;;;;;;;5079567;28;20887;-48
2022/03/22 12:05:39;;;;;;;8.80;3.95;;;;;;;;;;5092552;28;20081;-46
2022/03/22 12:08:10;;;;;;;10.02;4.85;;;;;;;;;;5092767;28;20364;-47
2022/03/22 12:10:36;;;;;;;7.57;4.13;;;;;;;;;;5087522;28;20482;-46
2022/03/22 12:13:02;;;;;;;9.43;4.55;;;;;;;;;;5081047;28;20024;-46
2022/03/22 12:15:29;;;;;;;7.43;4.20;;;;;;;;;;5092476;28;20035;-47
2022/03/22 12:17:56;;;;;;;6.13;3.70;;;;;;;;;;5091907;28;20028;-46
2022/03/22 12:20:23;;;;;;;8.65;4.30;;;;;;;;;;5088033;28;20442;-48
2022/03/22 12:22:59;;;;;;;5.50;3.72;;;;;;;;;;5081424;28;20107;-46
2022/03/22 12:25:25;;;;;;;7.05;3.97;;;;;;;;;;5086052;28;20089;-46
2022/03/22 12:27:52;;;;;;;7.07;4.20;;;;;;;;;;5091799;28;20021;-46
2022/03/22 12:30:20;;;;;;;7.55;4.22;;;;;;;;;;5090643;28;20119;-46
2022/03/22 12:32:46;;;;;;;6.07;3.78;;;;;;;;;;5082299;28;20028;-46
2022/03/22 12:35:12;;;;;;;5.43;3.83;;;;;;;;;;5089054;28;20464;-47
2022/03/22 12:37:38;;;;;;;5.30;3.45;;;;;;;;;;5091930;28;20387;-45
2022/03/22 12:40:05;;;;;;;8.65;3.85;;;;;;;;;;5080924;28;20031;-46
2022/03/22 12:42:31;;;;;;;4.93;2.92;;;;;;;;;;5078167;28;20032;-50
2022/03/22 12:44:58;;;;;;;4.70;3.20;;;;;;;;;;5091837;28;20080;-47
2022/03/22 12:47:24;;;;;;;4.43;2.83;;;;;;;;;;5091915;28;20039;-48
2022/03/22 12:49:50;;;;;;;5.22;3.35;;;;;;;;;;5091957;28;20021;-50
2022/03/22 12:52:16;;;;;;;4.45;2.95;;;;;;;;;;5091522;28;20032;-47
2022/03/22 12:54:43;;;;;;;6.28;3.15;;;;;;;;;;5084028;28;20040;-46
2022/03/22 12:57:10;;;;;;;6.22;3.00;;;;;;;;;;5084681;28;20062;-48
2022/03/22 12:59:37;;;;;;;7.88;3.00;;;;;;;;;;5089038;28;20027;-47
2022/03/22 13:02:06;;;;;;;4.00;2.90;;;;;;;;;;5091230;28;20104;-48
2022/03/22 13:04:34;;;;;;;3.80;3.03;;;;;;;;;;5091799;28;20036;-46
2022/03/22 13:07:01;;;;;;;5.00;3.15;;;;;;;;;;5084637;28;20032;-45
2022/03/22 13:12:14;;;;;;;4.22;3.13;;;;;;;;;;5089990;28;20043;-46
2022/03/22 13:17:27;;;;;;;4.80;3.13;;;;;;;;;;5094185;28;20027;-47
2022/03/22 13:19:53;;;;;;;4.70;2.95;;;;;;;;;;5093286;28;20031;-46
2022/03/22 13:22:26;;;;;;;4.82;2.90;;;;;;;;;;5084656;28;20362;-48
2022/03/22 13:25:02;;;;;;;5.35;3.47;;;;;;;;;;5101604;28;20035;-46
2022/03/22 13:27:28;;;;;;;6.80;3.53;;;;;;;;;;5076325;28;20036;-46
2022/03/22 13:29:54;;;;;;;5.68;2.95;;;;;;;;;;5089101;28;20028;-46
2022/03/22 13:32:28;;;;;;;5.05;2.97;;;;;;;;;;5088051;28;20024;-51
2022/03/22 13:34:59;;;;;;;5.32;3.25;;;;;;;;;;5091142;28;20028;-47
2022/03/22 13:37:25;;;;;;;5.22;2.80;;;;;;;;;;5095867;28;20027;-48
2022/03/22 13:39:52;;;;;;;5.32;3.15;;;;;;;;;;5095856;28;20375;-49
2022/03/22 13:42:19;;;;;;;4.20;2.63;;;;;;;;;;5095222;28;20151;-50
2022/03/22 13:45:12;;;;;;;4.78;2.78;;;;;;;;;;5095249;28;20099;-51
2022/03/22 13:47:44;;;;;;;4.15;2.88;;;;;;;;;;5088624;28;20100;-49
2022/03/22 13:50:14;;;;;;;4.20;2.67;;;;;;;;;;5089963;28;20035;-48
2022/03/22 13:52:41;;;;;;;3.55;2.45;;;;;;;;;;5087841;28;20028;-48
2022/03/22 13:55:17;;;;;;;4.78;3.15;;;;;;;;;;5083419;28;20031;-47
2022/03/22 13:57:47;;;;;;;5.88;3.03;;;;;;;;;;5094259;28;20025;-46
2022/03/22 14:00:13;;;;;;;4.90;3.10;;;;;;;;;;5085391;28;20028;-46
2022/03/22 14:02:39;;;;;;;6.40;2.97;;;;;;;;;;5086605;28;20043;-46
2022/03/22 14:05:05;;;;;;;4.88;3.10;;;;;;;;;;5094992;28;20103;-46
2022/03/22 14:07:31;;;;;;;5.00;2.80;;;;;;;;;;5090985;28;20564;-46
2022/03/22 14:09:57;;;;;;;4.10;2.55;;;;;;;;;;5084756;28;20452;-48
2022/03/22 14:12:23;;;;;;;5.50;2.78;;;;;;;;;;5081522;28;20114;-46
2022/03/22 14:14:49;;;;;;;4.85;2.60;;;;;;;;;;5088296;28;20058;-46
2022/03/22 14:17:15;;;;;;;4.65;3.28;;;;;;;;;;5084050;28;20025;-46
2022/03/22 14:19:41;;;;;;;6.18;2.85;;;;;;;;;;5083628;28;20496;-47
2022/03/22 14:22:07;;;;;;;4.65;3.13;;;;;;;;;;5091561;28;20446;-50
2022/03/22 14:24:33;;;;;;;4.78;2.90;;;;;;;;;;5094897;28;20027;-51
2022/03/22 14:27:00;;;;;;;3.80;2.95;;;;;;;;;;5090367;28;20114;-47
2022/03/22 14:29:26;;;;;;;4.57;2.70;;;;;;;;;;5083610;28;20030;-49
2022/03/22 14:31:52;;;;;;;3.65;2.80;;;;;;;;;;5094204;28;20024;-48
2022/03/22 14:37:05;;;;;;;4.30;2.95;;;;;;;;;;5090320;28;20059;-48
2022/03/22 14:39:31;;;;;;;4.82;3.00;;;;;;;;;;5086395;28;20029;-46
2022/03/22 14:41:57;;;;;;;4.43;2.90;;;;;;;;;;5087478;28;20031;-47
2022/03/22 14:44:23;;;;;;;5.45;3.33;;;;;;;;;;5092419;28;20367;-50
2022/03/22 14:46:52;;;;;;;7.75;3.20;;;;;;;;;;5087040;28;20042;-46
2022/03/22 14:49:18;;;;;;;3.88;3.03;;;;;;;;;;5092221;28;20032;-46
2022/03/22 14:54:33;;;;;;;6.15;2.92;;;;;;;;;;5092009;28;20730;-46
2022/03/22 14:59:45;;;;;;;3.92;2.80;;;;;;;;;;5091664;28;20097;-46
2022/03/22 15:02:13;;;;;;;4.72;3.13;;;;;;;;;;5099715;28;20031;-46
2022/03/22 15:04:39;;;;;;;5.18;2.63;;;;;;;;;;5090186;28;20476;-46
2022/03/22 15:07:05;;;;;;;4.75;2.83;;;;;;;;;;5085935;28;20036;-46
2022/03/22 15:09:31;;;;;;;4.88;3.33;;;;;;;;;;5086651;28;20491;-47
2022/03/22 15:11:58;;;;;;;5.55;3.67;;;;;;;;;;5087150;28;20524;-49
2022/03/22 15:14:24;;;;;;;5.60;3.33;;;;;;;;;;5092146;28;20023;-48
2022/03/22 15:16:50;;;;;;;5.18;2.60;;;;;;;;;;5089936;28;20024;-52
2022/03/22 15:19:16;;;;;;;4.60;2.83;;;;;;;;;;5093529;28;20065;-48
2022/03/22 15:21:42;;;;;;;5.85;3.17;;;;;;;;;;5086005;28;20364;-46